createdAt,value
2023-10-18T00:02:17.019Z,17.70
2023-10-18T00:05:24.205Z,16.40
2023-10-18T00:08:31.685Z,16.90
2023-10-18T00:11:40.145Z,15.30
2023-10-18T00:14:47.529Z,14.50
2023-10-18T00:17:55.027Z,15.00
2023-10-18T00:21:01.723Z,14.30
2023-10-18T00:24:02.343Z,14.30
2023-10-18T00:27:08.946Z,17.50
2023-10-18T00:30:16.706Z,17.60
2023-10-18T00:33:26.140Z,17.60
2023-10-18T00:36:33.703Z,15.80
2023-10-18T00:39:40.147Z,17.40
2023-10-18T00:42:48.999Z,18.10
2023-10-18T00:45:56.825Z,19.00
2023-10-18T00:49:04.268Z,18.10
2023-10-18T00:52:12.559Z,17.60
2023-10-18T00:55:19.654Z,18.20
2023-10-18T00:58:26.211Z,19.10
2023-10-18T01:01:34.182Z,17.10
2023-10-18T01:04:42.846Z,19.50
2023-10-18T01:07:50.111Z,18.10
2023-10-18T01:10:57.251Z,19.30
2023-10-18T01:14:05.990Z,19.60
2023-10-18T01:17:12.917Z,21.20
2023-10-18T01:20:20.972Z,19.80
2023-10-18T01:23:29.876Z,23.50
2023-10-18T01:26:37.304Z,25.60
2023-10-18T01:29:44.643Z,28.90
2023-10-18T01:32:53.793Z,28.80
2023-10-18T01:36:00.318Z,30.70
2023-10-18T01:39:07.975Z,29.90
2023-10-18T01:42:16.913Z,30.00
2023-10-18T01:45:23.663Z,30.70
2023-10-18T01:48:31.823Z,27.90
2023-10-18T01:51:39.450Z,29.90
2023-10-18T01:54:47.666Z,31.30
2023-10-18T01:57:55.506Z,30.50
2023-10-18T02:01:02.906Z,30.70
2023-10-18T02:04:11.347Z,31.20
2023-10-18T02:07:19.044Z,33.30
2023-10-18T02:10:27.585Z,33.20
2023-10-18T02:13:36.534Z,32.50
2023-10-18T02:16:44.089Z,33.50
2023-10-18T02:19:52.045Z,32.30
2023-10-18T02:23:00.646Z,31.10
2023-10-18T02:26:08.233Z,32.40
2023-10-18T02:29:14.882Z,32.90
2023-10-18T02:32:22.193Z,33.10
2023-10-18T02:35:31.038Z,34.30
2023-10-18T02:38:37.641Z,34.60
2023-10-18T02:41:44.941Z,31.50
2023-10-18T02:44:53.612Z,31.30
2023-10-18T02:48:00.195Z,34.60
2023-10-18T02:51:07.421Z,33.40
2023-10-18T02:54:16.330Z,33.30
2023-10-18T02:57:23.150Z,32.20
2023-10-18T03:00:30.414Z,30.60
2023-10-18T03:03:38.799Z,31.20
2023-10-18T03:06:46.455Z,28.40
2023-10-18T03:09:54.293Z,29.40
2023-10-18T03:13:01.232Z,28.90
2023-10-18T03:16:09.695Z,29.70
2023-10-18T03:19:16.852Z,31.00
2023-10-18T03:22:24.409Z,29.30
2023-10-18T03:25:33.074Z,29.00
2023-10-18T03:28:40.852Z,30.60
2023-10-18T03:31:47.445Z,28.90
2023-10-18T03:34:56.540Z,30.60
2023-10-18T03:38:04.256Z,29.80
2023-10-18T03:41:11.748Z,32.00
2023-10-18T03:44:20.116Z,28.60
2023-10-18T03:47:27.826Z,29.10
2023-10-18T03:50:34.546Z,28.70
2023-10-18T03:53:42.110Z,29.40
2023-10-18T03:56:51.201Z,28.40
2023-10-18T03:59:57.831Z,31.30
2023-10-18T04:03:05.133Z,30.00
2023-10-18T04:06:13.553Z,30.60
2023-10-18T04:09:20.916Z,30.20
2023-10-18T04:12:27.861Z,32.70
2023-10-18T04:15:36.953Z,29.90
2023-10-18T04:18:44.109Z,31.20
2023-10-18T04:21:51.038Z,30.70
2023-10-18T04:24:59.981Z,28.80
2023-10-18T04:28:06.652Z,27.90
2023-10-18T04:31:14.014Z,30.10
2023-10-18T04:34:22.392Z,30.40
2023-10-18T04:37:29.869Z,30.60
2023-10-18T04:40:36.435Z,29.10
2023-10-18T04:43:43.937Z,33.00
2023-10-18T04:46:52.298Z,32.00
2023-10-18T04:49:58.849Z,37.30
2023-10-18T04:53:06.090Z,43.00
2023-10-18T04:56:14.679Z,44.30
2023-10-18T04:59:21.585Z,71.60
2023-10-18T05:02:29.420Z,93.90
2023-10-18T05:05:37.812Z,52.70
2023-10-18T05:08:44.752Z,57.60
2023-10-18T05:11:51.671Z,62.00
2023-10-18T05:15:00.308Z,61.50
2023-10-18T05:18:08.214Z,56.70
2023-10-18T05:21:15.127Z,59.50
2023-10-18T05:24:22.574Z,88.40
2023-10-18T05:27:31.076Z,53.10
2023-10-18T05:30:38.288Z,92.70
2023-10-18T05:33:45.276Z,70.60
2023-10-18T05:36:53.952Z,85.40
2023-10-18T05:40:01.803Z,73.00
2023-10-18T05:43:08.721Z,52.20
2023-10-18T05:46:17.646Z,64.20
2023-10-18T05:49:28.275Z,47.40
2023-10-18T05:52:27.119Z,59.50
2023-10-18T05:55:35.469Z,48.40
2023-10-18T05:58:42.368Z,54.70
2023-10-18T06:01:49.166Z,46.80
2023-10-18T06:04:55.958Z,42.80
2023-10-18T06:08:04.411Z,42.10
2023-10-18T06:11:11.631Z,41.40
2023-10-18T06:14:18.561Z,42.20
2023-10-18T06:17:27.551Z,39.00
2023-10-18T06:20:34.996Z,39.50
2023-10-18T06:23:42.264Z,39.40
2023-10-18T06:26:51.959Z,41.40
2023-10-18T06:29:58.469Z,42.80
2023-10-18T06:33:05.535Z,39.00
2023-10-18T06:36:14.024Z,39.90
2023-10-18T06:39:21.371Z,36.60
2023-10-18T06:42:28.441Z,37.60
2023-10-18T06:45:36.229Z,39.30
2023-10-18T06:48:55.966Z,39.40
2023-10-18T06:51:49.070Z,37.10
2023-10-18T06:54:56.844Z,38.00
2023-10-18T06:58:05.519Z,37.90
2023-10-18T07:01:12.432Z,37.00
2023-10-18T07:04:19.943Z,38.10
2023-10-18T07:07:28.394Z,41.00
2023-10-18T07:10:35.005Z,37.80
2023-10-18T07:13:42.943Z,36.60
2023-10-18T07:16:51.347Z,38.60
2023-10-18T07:19:58.437Z,38.00
2023-10-18T07:23:06.234Z,37.70
2023-10-18T07:26:13.386Z,36.20
2023-10-18T07:29:21.969Z,37.20
2023-10-18T07:32:29.212Z,38.30
2023-10-18T07:35:36.677Z,37.70
2023-10-18T07:38:44.674Z,37.80
2023-10-18T07:41:51.855Z,41.00
2023-10-18T07:44:59.206Z,38.50
2023-10-18T07:48:07.708Z,38.20
2023-10-18T07:51:14.744Z,38.10
2023-10-18T07:54:21.986Z,37.30
2023-10-18T07:57:30.994Z,37.40
2023-10-18T08:00:37.946Z,37.20
2023-10-18T08:03:45.421Z,37.40
2023-10-18T08:06:53.936Z,35.10
2023-10-18T08:10:01.203Z,35.70
2023-10-18T08:13:08.247Z,36.10
2023-10-18T08:16:15.254Z,36.20
2023-10-18T08:19:24.198Z,34.80
2023-10-18T08:22:31.731Z,36.40
2023-10-18T08:25:38.897Z,33.40
2023-10-18T08:28:47.535Z,33.40
2023-10-18T08:30:46.025Z,31.10
2023-10-18T08:33:53.262Z,32.00
2023-10-18T08:36:59.914Z,31.40
2023-10-18T08:40:09.146Z,32.30
2023-10-18T08:43:15.974Z,30.50
2023-10-18T08:46:23.069Z,33.50
2023-10-18T08:49:31.296Z,29.60
2023-10-18T08:52:38.489Z,30.10
2023-10-18T08:55:45.859Z,28.80
2023-10-18T08:58:54.754Z,29.40
2023-10-18T09:02:02.051Z,28.50
2023-10-18T09:05:10.205Z,28.90
2023-10-18T09:08:20.009Z,28.80
2023-10-18T09:11:27.114Z,27.80
2023-10-18T09:14:34.263Z,27.60
2023-10-18T09:17:42.842Z,27.60
2023-10-18T09:20:50.286Z,26.60
2023-10-18T09:23:57.722Z,27.00
2023-10-18T09:27:05.392Z,25.90
2023-10-18T09:30:13.656Z,26.00
2023-10-18T09:33:20.703Z,26.40
2023-10-18T09:36:28.091Z,25.30
2023-10-18T09:39:36.592Z,23.30
2023-10-18T09:42:43.798Z,22.80
2023-10-18T09:45:50.752Z,22.90
2023-10-18T09:49:00.269Z,21.80
2023-10-18T09:52:07.822Z,19.60
2023-10-18T09:55:14.319Z,18.70
2023-10-18T09:58:23.027Z,18.60
2023-10-18T10:01:30.125Z,16.40
2023-10-18T10:04:37.661Z,16.80
2023-10-18T10:07:46.780Z,15.80
2023-10-18T10:10:45.848Z,15.00
2023-10-18T10:13:52.328Z,14.80
2023-10-18T10:17:00.132Z,14.00
2023-10-18T10:20:09.083Z,13.60
2023-10-18T10:23:16.111Z,13.40
2023-10-18T10:26:31.755Z,13.50
2023-10-18T10:29:28.984Z,13.60
2023-10-18T10:32:36.947Z,12.80
2023-10-18T10:35:43.904Z,12.90
2023-10-18T10:38:52.639Z,12.50
2023-10-18T10:41:59.246Z,12.00
2023-10-18T10:45:08.275Z,10.50
2023-10-18T10:48:15.511Z,10.70
2023-10-18T10:51:24.022Z,10.80
2023-10-18T10:54:31.464Z,9.80
2023-10-18T10:57:38.115Z,10.70
2023-10-18T11:00:46.663Z,11.10
2023-10-18T11:03:53.612Z,9.90
2023-10-18T11:07:00.746Z,9.90
2023-10-18T11:10:09.575Z,10.60
2023-10-18T11:13:16.688Z,9.20
2023-10-18T11:16:24.388Z,9.00
2023-10-18T11:19:33.367Z,9.00
2023-10-18T11:22:40.594Z,8.40
2023-10-18T11:25:48.151Z,9.10
2023-10-18T11:28:54.766Z,8.80
2023-10-18T11:32:03.448Z,8.20
2023-10-18T11:35:11.205Z,8.30
2023-10-18T11:38:17.923Z,8.40
2023-10-18T11:41:26.976Z,8.60
2023-10-18T11:44:34.260Z,7.60
2023-10-18T11:47:43.417Z,8.10
2023-10-18T11:50:42.879Z,7.50
2023-10-18T11:53:50.151Z,7.50
2023-10-18T11:56:57.483Z,7.90
2023-10-18T12:00:06.382Z,7.20
2023-10-18T12:03:14.275Z,8.40
2023-10-18T12:06:22.982Z,7.40
2023-10-18T12:09:30.653Z,7.00
2023-10-18T12:12:39.147Z,6.60
2023-10-18T12:15:46.753Z,7.10
2023-10-18T12:18:54.140Z,6.30
2023-10-18T12:22:02.659Z,6.00
2023-10-18T12:25:09.564Z,7.10
2023-10-18T12:28:16.885Z,6.20
2023-10-18T12:31:25.408Z,6.20
2023-10-18T12:34:33.517Z,6.70
2023-10-18T12:37:40.703Z,6.00
2023-10-18T12:40:49.497Z,5.70
2023-10-18T12:43:56.356Z,4.80
2023-10-18T12:47:03.696Z,4.20
2023-10-18T12:50:11.677Z,4.40
2023-10-18T12:53:19.104Z,4.70
2023-10-18T12:56:26.475Z,4.80
2023-10-18T12:59:33.552Z,4.50
2023-10-18T13:02:42.650Z,3.90
2023-10-18T13:05:50.128Z,4.40
2023-10-18T13:08:57.336Z,4.90
2023-10-18T13:12:06.042Z,4.90
2023-10-18T13:15:13.459Z,5.70
2023-10-18T13:18:20.828Z,5.50
2023-10-18T13:21:29.618Z,5.20
2023-10-18T13:24:36.988Z,6.00
2023-10-18T13:27:44.039Z,5.70
2023-10-18T13:30:53.123Z,6.00
2023-10-18T13:34:00.228Z,6.40
2023-10-18T13:37:07.257Z,6.70
2023-10-18T13:40:14.349Z,6.70
2023-10-18T13:43:23.470Z,6.80
2023-10-18T13:46:30.090Z,7.20
2023-10-18T13:49:37.435Z,7.50
2023-10-18T13:52:46.149Z,7.40
2023-10-18T13:55:53.082Z,8.10
2023-10-18T13:59:00.503Z,8.30
2023-10-18T14:02:09.600Z,7.60
2023-10-18T14:05:16.274Z,8.30
2023-10-18T14:08:23.439Z,8.70
2023-10-18T14:11:32.023Z,8.20
2023-10-18T14:14:38.713Z,8.90
2023-10-18T14:17:46.186Z,8.70
2023-10-18T14:20:53.760Z,8.20
2023-10-18T14:24:01.787Z,10.50
2023-10-18T14:27:09.610Z,11.10
2023-10-18T14:30:17.396Z,10.90
2023-10-18T14:33:33.807Z,7.70
2023-10-18T14:36:30.541Z,7.50
2023-10-18T14:39:39.736Z,8.40
2023-10-18T14:42:48.432Z,7.80
2023-10-18T14:45:55.837Z,7.70
2023-10-18T14:49:03.217Z,8.70
2023-10-18T14:52:11.558Z,10.70
2023-10-18T14:55:18.765Z,12.80
2023-10-18T14:58:26.074Z,14.50
2023-10-18T15:01:33.922Z,23.50
2023-10-18T15:04:42.402Z,20.50
2023-10-18T15:07:49.601Z,37.80
2023-10-18T15:10:56.597Z,15.30
2023-10-18T15:14:05.500Z,20.90
2023-10-18T15:17:13.042Z,23.30
2023-10-18T15:20:20.168Z,29.40
2023-10-18T15:23:28.535Z,13.00
2023-10-18T15:26:35.571Z,21.20
2023-10-18T15:29:42.877Z,18.20
2023-10-18T15:32:51.505Z,15.30
2023-10-18T15:35:58.866Z,14.30
2023-10-18T15:39:06.382Z,15.60
2023-10-18T15:42:14.880Z,12.80
2023-10-18T15:45:22.044Z,14.10
2023-10-18T15:48:29.969Z,12.60
2023-10-18T15:51:36.910Z,12.00
2023-10-18T15:54:46.237Z,11.60
2023-10-18T15:57:53.146Z,12.10
2023-10-18T16:01:01.106Z,26.80
2023-10-18T16:04:09.772Z,21.40
2023-10-18T16:07:18.099Z,34.50
2023-10-18T16:10:25.460Z,17.50
2023-10-18T16:13:34.336Z,26.00
2023-10-18T16:16:41.696Z,20.30
2023-10-18T16:19:49.707Z,37.50
2023-10-18T16:22:58.247Z,17.20
2023-10-18T16:26:06.212Z,11.70
2023-10-18T16:29:13.828Z,22.50
2023-10-18T16:32:21.697Z,23.90
2023-10-18T16:35:32.343Z,13.50
2023-10-18T16:38:39.816Z,24.30
2023-10-18T16:41:47.234Z,37.10
2023-10-18T16:44:56.547Z,13.30
2023-10-18T16:48:04.294Z,16.00
2023-10-18T16:51:12.077Z,19.00
2023-10-18T16:54:21.099Z,10.70
2023-10-18T16:57:29.201Z,19.00
2023-10-18T17:00:35.819Z,16.70
2023-10-18T17:03:44.552Z,31.70
2023-10-18T17:06:52.812Z,20.20
2023-10-18T17:09:59.714Z,44.80
2023-10-18T17:13:07.751Z,9.90
2023-10-18T17:16:16.640Z,18.60
2023-10-18T17:19:23.589Z,16.00
2023-10-18T17:22:31.014Z,12.30
2023-10-18T17:25:40.413Z,12.10
2023-10-18T17:28:48.341Z,9.30
2023-10-18T17:31:55.938Z,12.70
2023-10-18T17:35:06.014Z,25.10
2023-10-18T17:38:12.643Z,9.70
2023-10-18T17:41:20.003Z,11.10
2023-10-18T17:44:28.412Z,15.40
2023-10-18T17:47:35.836Z,15.00
2023-10-18T17:50:43.445Z,13.90
2023-10-18T17:53:51.096Z,9.60
2023-10-18T17:56:59.986Z,10.10
2023-10-18T18:00:08.124Z,11.10
2023-10-18T18:03:16.056Z,12.60
2023-10-18T18:06:24.772Z,10.80
2023-10-18T18:09:32.801Z,10.60
2023-10-18T18:12:39.787Z,11.00
2023-10-18T18:15:49.121Z,11.40
2023-10-18T18:18:56.791Z,8.90
2023-10-18T18:22:04.113Z,9.30
2023-10-18T18:25:13.184Z,8.50
2023-10-18T18:28:22.055Z,8.80
2023-10-18T18:31:28.997Z,8.50
2023-10-18T18:34:38.909Z,8.50
2023-10-18T18:37:46.220Z,9.10
2023-10-18T18:40:55.084Z,10.30
2023-10-18T18:44:02.263Z,8.10
2023-10-18T18:47:10.917Z,17.00
2023-10-18T18:50:18.143Z,14.70
2023-10-18T18:53:25.423Z,8.50
2023-10-18T18:56:35.123Z,8.70
2023-10-18T18:59:41.761Z,8.70
2023-10-18T19:02:49.467Z,7.30
2023-10-18T19:05:57.986Z,7.50
2023-10-18T19:09:04.743Z,8.60
2023-10-18T19:12:12.335Z,7.10
2023-10-18T19:15:22.590Z,6.80
2023-10-18T19:18:29.789Z,6.90
2023-10-18T19:21:37.314Z,7.20
2023-10-18T19:24:44.576Z,7.50
2023-10-18T19:27:53.719Z,7.80
2023-10-18T19:31:01.931Z,7.60
2023-10-18T19:34:09.442Z,7.90
2023-10-18T19:37:18.213Z,7.00
2023-10-18T19:40:26.095Z,7.50
2023-10-18T19:43:33.394Z,7.10
2023-10-18T19:46:42.528Z,7.50
2023-10-18T19:49:49.794Z,7.70
2023-10-18T19:52:57.817Z,6.60
2023-10-18T19:56:06.547Z,6.40
2023-10-18T19:59:13.819Z,7.20
2023-10-18T20:02:20.943Z,6.70
2023-10-18T20:05:29.079Z,6.70
2023-10-18T20:08:38.064Z,7.30
2023-10-18T20:11:46.049Z,7.10
2023-10-18T20:14:53.480Z,7.00
2023-10-18T20:18:02.052Z,6.90
2023-10-18T20:21:09.470Z,7.00
2023-10-18T20:24:16.812Z,7.30
2023-10-18T20:27:25.177Z,7.60
2023-10-18T20:30:32.011Z,7.80
2023-10-18T20:33:38.675Z,7.90
2023-10-18T20:36:48.149Z,7.80
2023-10-18T20:39:57.230Z,8.10
2023-10-18T20:43:05.164Z,7.60
2023-10-18T20:46:14.520Z,7.70
2023-10-18T20:49:21.480Z,7.60
2023-10-18T20:52:28.633Z,7.90
2023-10-18T20:55:35.742Z,8.20
2023-10-18T20:58:45.277Z,8.40
2023-10-18T21:01:52.490Z,8.70
2023-10-18T21:05:00.137Z,8.30
2023-10-18T21:08:09.261Z,7.80
2023-10-18T21:11:16.728Z,8.30
2023-10-18T21:14:24.580Z,8.30
2023-10-18T21:17:33.001Z,8.60
2023-10-18T21:20:41.059Z,8.70
2023-10-18T21:23:48.800Z,9.10
2023-10-18T21:26:57.092Z,8.70
2023-10-18T21:30:04.068Z,9.70
2023-10-18T21:33:12.136Z,10.00
2023-10-18T21:36:18.901Z,9.90
2023-10-18T21:39:27.944Z,10.10
2023-10-18T21:42:35.057Z,10.00
2023-10-18T21:45:42.312Z,11.10
2023-10-18T21:48:51.461Z,11.90
2023-10-18T21:51:59.050Z,11.60
2023-10-18T21:55:06.425Z,11.50
2023-10-18T21:58:15.938Z,12.70
2023-10-18T22:01:24.115Z,12.70
2023-10-18T22:04:31.813Z,12.30
2023-10-18T22:07:40.864Z,13.40
2023-10-18T22:10:47.480Z,14.00
2023-10-18T22:13:55.339Z,14.60
2023-10-18T22:17:02.195Z,14.40
2023-10-18T22:20:10.331Z,15.00
2023-10-18T22:23:18.266Z,14.40
2023-10-18T22:26:25.113Z,14.00
2023-10-18T22:29:34.181Z,14.80
2023-10-18T22:32:41.734Z,14.50
2023-10-18T22:35:48.944Z,14.60
2023-10-18T22:38:57.124Z,14.10
2023-10-18T22:42:04.629Z,15.00
2023-10-18T22:45:11.762Z,15.40
2023-10-18T22:48:20.096Z,15.50
2023-10-18T22:51:27.815Z,14.60
2023-10-18T22:54:34.984Z,14.60
2023-10-18T22:57:41.922Z,14.30
2023-10-18T23:00:51.114Z,14.60
2023-10-18T23:03:58.711Z,14.70
2023-10-18T23:07:05.649Z,15.00
2023-10-18T23:10:14.353Z,15.20
2023-10-18T23:13:21.166Z,15.50
2023-10-18T23:16:28.901Z,15.20
2023-10-18T23:19:37.643Z,15.80
2023-10-18T23:22:45.159Z,15.90
2023-10-18T23:25:53.139Z,15.60
2023-10-18T23:29:01.994Z,15.30
2023-10-18T23:32:08.866Z,14.10
2023-10-18T23:35:16.746Z,15.00
2023-10-18T23:38:25.700Z,14.90
2023-10-18T23:41:32.552Z,15.60
2023-10-18T23:44:39.798Z,14.70
2023-10-18T23:47:47.024Z,15.20
2023-10-18T23:50:55.989Z,14.70
2023-10-18T23:54:03.530Z,14.40
2023-10-18T23:57:10.855Z,14.40
